createdAt,value
2018-10-07T00:00:03.302Z,59.36
2018-10-07T00:01:06.785Z,59.70
2018-10-07T00:02:10.175Z,59.62
2018-10-07T00:03:13.617Z,59.62
2018-10-07T00:04:17.068Z,59.66
2018-10-07T00:05:20.467Z,60.21
2018-10-07T00:06:23.965Z,60.62
2018-10-07T00:07:27.414Z,60.58
2018-10-07T00:08:30.798Z,60.72
2018-10-07T00:09:34.216Z,60.55
2018-10-07T00:10:37.645Z,60.54
2018-10-07T00:11:41.190Z,60.66
2018-10-07T00:12:45.198Z,60.89
2018-10-07T00:13:48.594Z,60.28
2018-10-07T00:14:52.033Z,59.98
2018-10-07T00:15:55.424Z,59.92
2018-10-07T00:16:58.840Z,59.72
2018-10-07T00:18:02.221Z,59.87
2018-10-07T00:19:05.679Z,59.41
2018-10-07T00:20:09.108Z,59.44
2018-10-07T00:21:12.557Z,59.09
2018-10-07T00:22:16.006Z,59.16
2018-10-07T00:23:19.434Z,59.17
2018-10-07T00:24:22.974Z,59.02
2018-10-07T00:25:26.395Z,58.93
2018-10-07T00:26:29.820Z,58.93
2018-10-07T00:27:33.288Z,58.94
2018-10-07T00:28:36.782Z,59.29
2018-10-07T00:29:40.216Z,59.15
2018-10-07T00:30:43.657Z,58.87
2018-10-07T00:31:52.338Z,59.10
2018-10-07T00:32:55.735Z,58.99
2018-10-07T00:33:59.179Z,59.03
2018-10-07T00:35:02.616Z,58.99
2018-10-07T00:36:06.277Z,59.27
2018-10-07T00:37:09.956Z,59.07
2018-10-07T00:38:13.390Z,59.44
2018-10-07T00:39:16.785Z,59.17
2018-10-07T00:40:20.230Z,59.15
2018-10-07T00:41:23.651Z,59.28
2018-10-07T00:42:27.051Z,59.34
2018-10-07T00:43:30.525Z,59.12
2018-10-07T00:44:33.975Z,59.20
2018-10-07T00:45:37.629Z,59.36
2018-10-07T00:46:41.107Z,59.43
2018-10-07T00:47:44.568Z,59.47
2018-10-07T00:48:48.096Z,59.31
2018-10-07T00:49:51.532Z,59.51
2018-10-07T00:50:54.970Z,59.48
2018-10-07T00:51:58.387Z,59.51
2018-10-07T00:53:01.869Z,59.65
2018-10-07T00:54:05.360Z,59.82
2018-10-07T00:55:08.823Z,59.61
2018-10-07T00:56:12.453Z,59.87
2018-10-07T00:57:15.913Z,59.95
2018-10-07T00:58:19.350Z,60.19
2018-10-07T00:59:22.970Z,60.02
2018-10-07T01:00:26.402Z,60.04
2018-10-07T01:01:29.859Z,60.16
2018-10-07T01:02:33.285Z,60.45
2018-10-07T01:03:36.769Z,60.51
2018-10-07T01:04:40.222Z,60.24
2018-10-07T01:05:43.780Z,60.18
2018-10-07T01:06:47.310Z,60.28
2018-10-07T01:07:50.723Z,60.63
2018-10-07T01:08:54.180Z,60.45
2018-10-07T01:09:57.597Z,60.69
2018-10-07T01:11:01.000Z,60.26
2018-10-07T01:12:04.439Z,60.90
2018-10-07T01:13:07.933Z,60.53
2018-10-07T01:14:11.837Z,60.72
2018-10-07T01:15:15.250Z,60.81
2018-10-07T01:16:18.732Z,60.61
2018-10-07T01:17:22.257Z,60.74
2018-10-07T01:18:25.713Z,60.74
2018-10-07T01:19:29.121Z,60.61
2018-10-07T01:20:32.558Z,60.54
2018-10-07T01:21:36.147Z,60.35
2018-10-07T01:22:39.571Z,59.97
2018-10-07T01:23:43.040Z,59.69
2018-10-07T01:24:46.622Z,59.81
2018-10-07T01:25:50.201Z,59.52
2018-10-07T01:26:53.630Z,59.47
2018-10-07T01:27:57.051Z,59.62
2018-10-07T01:29:00.485Z,59.39
2018-10-07T01:30:03.982Z,58.97
2018-10-07T01:31:07.419Z,59.27
2018-10-07T01:32:10.835Z,59.18
2018-10-07T01:33:14.268Z,59.46
2018-10-07T01:34:17.742Z,59.14
2018-10-07T01:35:21.190Z,58.96
2018-10-07T01:36:24.625Z,58.88
2018-10-07T01:37:28.066Z,58.94
2018-10-07T01:38:31.446Z,59.37
2018-10-07T01:39:34.882Z,59.12
2018-10-07T01:40:38.628Z,59.19
2018-10-07T01:41:42.065Z,58.96
2018-10-07T01:42:45.617Z,59.07
2018-10-07T01:43:49.059Z,59.16
2018-10-07T01:44:52.467Z,59.59
2018-10-07T01:45:55.948Z,59.23
2018-10-07T01:46:59.381Z,59.24
2018-10-07T01:48:02.820Z,59.33
2018-10-07T01:49:06.294Z,59.13
2018-10-07T01:50:09.749Z,59.88
2018-10-07T01:51:13.186Z,59.44
2018-10-07T01:52:16.591Z,59.57
2018-10-07T01:53:20.093Z,59.79
2018-10-07T01:54:23.558Z,59.74
2018-10-07T01:55:26.973Z,59.55
2018-10-07T01:56:30.398Z,59.85
2018-10-07T01:57:33.852Z,59.74
2018-10-07T01:58:37.301Z,59.97
2018-10-07T01:59:41.033Z,60.23
2018-10-07T02:00:44.438Z,59.88
2018-10-07T02:01:47.839Z,59.99
2018-10-07T02:02:51.295Z,59.83
2018-10-07T02:03:54.740Z,60.28
2018-10-07T02:04:58.239Z,60.01
2018-10-07T02:06:01.678Z,60.21
2018-10-07T02:07:05.110Z,60.25
2018-10-07T02:08:08.611Z,60.20
2018-10-07T02:09:12.125Z,60.04
2018-10-07T02:10:15.519Z,60.32
2018-10-07T02:11:18.979Z,60.58
2018-10-07T02:12:22.593Z,60.47
2018-10-07T02:13:26.032Z,60.69
2018-10-07T02:14:29.457Z,60.57
2018-10-07T02:15:32.935Z,60.64
2018-10-07T02:16:36.356Z,60.69
2018-10-07T02:17:39.769Z,60.44
2018-10-07T02:18:43.198Z,60.89
2018-10-07T02:19:46.605Z,60.77
2018-10-07T02:20:50.102Z,61.10
2018-10-07T02:21:53.487Z,60.84
2018-10-07T02:22:56.903Z,61.01
2018-10-07T02:24:00.329Z,61.12
2018-10-07T02:25:03.774Z,60.99
2018-10-07T02:26:07.275Z,61.21
2018-10-07T02:27:10.792Z,61.25
2018-10-07T02:28:14.240Z,61.41
2018-10-07T02:29:17.772Z,61.08
2018-10-07T02:30:21.205Z,60.96
2018-10-07T02:31:24.601Z,60.67
2018-10-07T02:32:28.018Z,60.77
2018-10-07T02:33:31.429Z,60.42
2018-10-07T02:34:35.224Z,60.16
2018-10-07T02:35:38.667Z,60.03
2018-10-07T02:36:42.105Z,59.95
2018-10-07T02:37:45.546Z,59.64
2018-10-07T02:38:48.980Z,59.65
2018-10-07T02:39:52.457Z,59.74
2018-10-07T02:40:55.874Z,59.53
2018-10-07T02:41:59.290Z,59.51
2018-10-07T02:43:02.715Z,59.27
2018-10-07T02:44:06.190Z,59.26
2018-10-07T02:45:09.690Z,59.22
2018-10-07T02:46:13.137Z,59.26
2018-10-07T02:47:16.566Z,59.25
2018-10-07T02:48:20.001Z,59.30
2018-10-07T02:49:23.445Z,59.44
2018-10-07T02:50:26.866Z,59.39
2018-10-07T02:51:30.419Z,59.04
2018-10-07T02:52:39.031Z,59.42
2018-10-07T02:53:42.495Z,59.35
2018-10-07T02:54:46.055Z,59.32
2018-10-07T02:55:49.565Z,59.53
2018-10-07T02:56:53.128Z,59.33
2018-10-07T02:57:57.813Z,59.54
2018-10-07T02:59:01.279Z,59.74
2018-10-07T03:00:04.796Z,59.65
2018-10-07T03:01:08.358Z,59.95
2018-10-07T03:02:11.797Z,59.70
2018-10-07T03:03:15.228Z,59.74
2018-10-07T03:04:18.654Z,60.28
2018-10-07T03:05:22.119Z,60.04
2018-10-07T03:06:25.563Z,60.04
2018-10-07T03:07:28.974Z,60.38
2018-10-07T03:08:32.432Z,60.31
2018-10-07T03:09:35.943Z,60.62
2018-10-07T03:10:39.424Z,60.41
2018-10-07T03:11:42.865Z,60.21
2018-10-07T03:12:46.289Z,60.34
2018-10-07T03:13:49.716Z,60.32
2018-10-07T03:14:53.152Z,60.61
2018-10-07T03:15:56.573Z,60.88
2018-10-07T03:16:59.993Z,60.76
2018-10-07T03:18:03.396Z,60.93
2018-10-07T03:19:06.891Z,60.82
2018-10-07T03:20:10.287Z,60.91
2018-10-07T03:21:13.752Z,60.91
2018-10-07T03:22:17.214Z,61.19
2018-10-07T03:23:20.630Z,60.98
2018-10-07T03:24:24.054Z,61.12
2018-10-07T03:25:27.490Z,61.13
2018-10-07T03:26:31.013Z,61.04
2018-10-07T03:27:34.555Z,61.48
2018-10-07T03:28:38.022Z,61.31
2018-10-07T03:29:41.463Z,61.35
2018-10-07T03:30:44.854Z,61.29
2018-10-07T03:31:48.278Z,61.40
2018-10-07T03:32:51.762Z,61.33
2018-10-07T03:33:55.381Z,61.55
2018-10-07T03:34:58.787Z,61.50
2018-10-07T03:36:02.206Z,61.59
2018-10-07T03:37:05.675Z,61.32
2018-10-07T03:38:09.198Z,61.54
2018-10-07T03:39:12.590Z,61.75
2018-10-07T03:40:16.018Z,61.79
2018-10-07T03:41:19.472Z,61.67
2018-10-07T03:42:22.904Z,62.00
2018-10-07T03:43:26.444Z,62.18
2018-10-07T03:44:29.844Z,62.00
2018-10-07T03:45:33.239Z,62.20
2018-10-07T03:46:36.650Z,62.15
2018-10-07T03:47:40.175Z,62.18
2018-10-07T03:48:43.621Z,62.21
2018-10-07T03:49:47.060Z,62.23
2018-10-07T03:50:50.665Z,61.77
2018-10-07T03:51:54.087Z,61.67
2018-10-07T03:52:57.521Z,61.56
2018-10-07T03:54:00.962Z,61.28
2018-10-07T03:55:04.503Z,61.22
2018-10-07T03:56:08.040Z,60.74
2018-10-07T03:57:11.496Z,60.82
2018-10-07T03:58:14.996Z,60.58
2018-10-07T03:59:18.458Z,60.47
2018-10-07T04:00:21.890Z,60.56
2018-10-07T04:01:25.437Z,60.34
2018-10-07T04:02:30.393Z,60.29
2018-10-07T04:03:33.863Z,60.26
2018-10-07T04:04:37.649Z,60.10
2018-10-07T04:05:41.066Z,60.14
2018-10-07T04:06:44.478Z,60.14
2018-10-07T04:07:48.005Z,60.09
2018-10-07T04:08:51.544Z,60.17
2018-10-07T04:09:55.006Z,60.19
2018-10-07T04:10:58.433Z,60.16
2018-10-07T04:12:01.865Z,60.61
2018-10-07T04:13:05.300Z,60.29
2018-10-07T04:14:08.939Z,60.21
2018-10-07T04:15:12.426Z,60.11
2018-10-07T04:16:15.831Z,60.34
2018-10-07T04:17:19.240Z,60.24
2018-10-07T04:18:22.640Z,60.32
2018-10-07T04:19:26.042Z,60.17
2018-10-07T04:20:29.486Z,60.75
2018-10-07T04:21:33.090Z,60.35
2018-10-07T04:22:36.494Z,60.23
2018-10-07T04:23:39.958Z,60.57
2018-10-07T04:24:43.440Z,60.66
2018-10-07T04:25:46.871Z,60.75
2018-10-07T04:26:50.359Z,60.72
2018-10-07T04:27:53.843Z,60.92
2018-10-07T04:28:57.332Z,60.82
2018-10-07T04:30:00.751Z,61.10
2018-10-07T04:31:04.151Z,60.82
2018-10-07T04:32:07.588Z,61.04
2018-10-07T04:33:10.963Z,60.95
2018-10-07T04:34:14.424Z,60.70
2018-10-07T04:35:17.828Z,61.08
2018-10-07T04:36:21.309Z,61.01
2018-10-07T04:37:24.737Z,61.23
2018-10-07T04:38:28.165Z,60.92
2018-10-07T04:39:31.578Z,61.49
2018-10-07T04:40:35.021Z,61.14
2018-10-07T04:41:38.522Z,61.23
2018-10-07T04:42:41.950Z,61.34
2018-10-07T04:43:45.406Z,61.62
2018-10-07T04:44:48.886Z,61.49
2018-10-07T04:45:52.298Z,61.26
2018-10-07T04:46:55.704Z,61.30
2018-10-07T04:47:59.102Z,61.38
2018-10-07T04:49:02.809Z,61.64
2018-10-07T04:50:07.166Z,61.55
2018-10-07T04:51:10.628Z,61.73
2018-10-07T04:52:14.092Z,61.57
2018-10-07T04:53:17.503Z,61.85
2018-10-07T04:54:21.182Z,61.68
2018-10-07T04:55:24.613Z,61.84
2018-10-07T04:56:28.066Z,61.63
2018-10-07T04:57:31.502Z,61.90
2018-10-07T04:58:34.896Z,61.89
2018-10-07T04:59:38.315Z,61.80
2018-10-07T05:00:41.809Z,61.87
2018-10-07T05:01:45.214Z,61.88
2018-10-07T05:02:48.651Z,62.05
2018-10-07T05:03:52.427Z,62.18
2018-10-07T05:04:56.633Z,62.49
2018-10-07T05:06:00.181Z,62.08
2018-10-07T05:07:03.730Z,62.56
2018-10-07T05:08:07.893Z,62.30
2018-10-07T05:09:11.993Z,62.50
2018-10-07T05:10:26.304Z,62.24
2018-10-07T05:11:30.087Z,62.41
2018-10-07T05:12:33.618Z,62.45
2018-10-07T05:13:47.357Z,62.51
2018-10-07T05:14:50.897Z,61.81
2018-10-07T05:15:55.965Z,61.81
2018-10-07T05:16:59.479Z,61.48
2018-10-07T05:18:02.995Z,61.49
2018-10-07T05:19:07.246Z,61.33
2018-10-07T05:20:10.698Z,61.23
2018-10-07T05:21:14.198Z,61.38
2018-10-07T05:22:17.603Z,61.20
2018-10-07T05:23:21.214Z,60.89
2018-10-07T05:24:24.666Z,61.10
2018-10-07T05:25:28.178Z,60.59
2018-10-07T05:26:31.659Z,60.54
2018-10-07T05:27:35.241Z,60.68
2018-10-07T05:28:38.822Z,60.60
2018-10-07T05:29:42.302Z,60.52
2018-10-07T05:30:45.791Z,60.63
2018-10-07T05:31:49.324Z,60.62
2018-10-07T05:32:52.769Z,60.77
2018-10-07T05:33:56.195Z,60.77
2018-10-07T05:34:59.786Z,61.04
2018-10-07T05:36:03.232Z,60.95
2018-10-07T05:37:06.733Z,60.87
2018-10-07T05:38:10.382Z,60.95
2018-10-07T05:39:13.964Z,61.18
2018-10-07T05:40:17.416Z,61.09
2018-10-07T05:41:20.847Z,61.10
2018-10-07T05:42:24.504Z,61.02
2018-10-07T05:43:27.972Z,61.03
2018-10-07T05:44:31.489Z,61.42
2018-10-07T05:45:34.966Z,61.15
2018-10-07T05:46:38.378Z,61.25
2018-10-07T05:47:41.804Z,61.34
2018-10-07T05:48:45.463Z,61.24
2018-10-07T05:49:49.004Z,61.38
2018-10-07T05:50:52.461Z,61.08
2018-10-07T05:51:55.882Z,61.31
2018-10-07T05:52:59.331Z,61.51
2018-10-07T05:54:02.748Z,61.80
2018-10-07T05:55:06.313Z,61.17
2018-10-07T05:56:09.774Z,61.67
2018-10-07T05:57:13.276Z,61.63
2018-10-07T05:58:16.753Z,61.70
2018-10-07T05:59:20.266Z,61.68
2018-10-07T06:00:23.779Z,61.92
2018-10-07T06:01:36.076Z,61.81
2018-10-07T06:02:41.624Z,62.03
2018-10-07T06:04:51.981Z,62.04
2018-10-07T06:05:55.398Z,61.97
2018-10-07T06:07:02.287Z,62.08
2018-10-07T06:08:05.894Z,62.11
2018-10-07T06:09:19.586Z,62.08
2018-10-07T06:10:23.044Z,62.32
2018-10-07T06:11:26.567Z,62.28
2018-10-07T06:12:30.032Z,62.25
2018-10-07T06:13:33.549Z,62.36
2018-10-07T06:14:48.243Z,62.46
2018-10-07T06:15:51.693Z,62.25
2018-10-07T06:16:55.129Z,62.24
2018-10-07T06:17:58.847Z,62.60
2018-10-07T06:19:02.408Z,62.70
2018-10-07T06:20:05.961Z,62.48
2018-10-07T06:21:09.549Z,62.48
2018-10-07T06:22:13.072Z,62.54
2018-10-07T06:23:16.548Z,62.54
2018-10-07T06:24:20.070Z,62.83
2018-10-07T06:25:23.549Z,62.65
2018-10-07T06:26:26.988Z,62.47
2018-10-07T06:27:30.545Z,62.61
2018-10-07T06:28:33.966Z,62.51
2018-10-07T06:29:37.460Z,62.84
2018-10-07T06:30:40.937Z,62.75
2018-10-07T06:31:44.879Z,62.53
2018-10-07T06:32:48.351Z,62.74
2018-10-07T06:33:51.858Z,62.64
2018-10-07T06:34:55.350Z,62.59
2018-10-07T06:35:58.804Z,62.59
2018-10-07T06:37:02.328Z,62.19
2018-10-07T06:38:05.784Z,61.94
2018-10-07T06:39:09.258Z,61.74
2018-10-07T06:40:12.841Z,61.56
2018-10-07T06:41:16.318Z,61.55
2018-10-07T06:42:19.813Z,61.69
2018-10-07T06:43:23.467Z,61.49
2018-10-07T06:44:26.955Z,61.17
2018-10-07T06:45:30.465Z,61.28
2018-10-07T06:46:33.872Z,61.30
2018-10-07T06:47:37.415Z,61.30
2018-10-07T06:48:40.872Z,61.01
2018-10-07T06:49:44.287Z,61.02
2018-10-07T06:50:47.768Z,61.18
2018-10-07T06:51:51.635Z,61.14
2018-10-07T06:52:55.060Z,61.18
2018-10-07T06:53:58.477Z,61.08
2018-10-07T06:55:01.974Z,61.23
2018-10-07T06:56:05.478Z,61.07
2018-10-07T06:57:09.021Z,61.19
2018-10-07T06:58:12.481Z,60.92
2018-10-07T06:59:15.925Z,61.22
2018-10-07T07:00:19.486Z,60.99
2018-10-07T07:01:22.974Z,60.97
2018-10-07T07:02:26.500Z,60.89
2018-10-07T07:03:29.929Z,60.92
2018-10-07T07:04:33.365Z,60.71
2018-10-07T07:05:36.878Z,61.00
2018-10-07T07:06:41.763Z,61.07
2018-10-07T07:07:45.469Z,60.94
2018-10-07T07:08:48.938Z,61.06
2018-10-07T07:09:52.723Z,61.05
2018-10-07T07:10:56.139Z,61.01
2018-10-07T07:11:59.711Z,60.92
2018-10-07T07:13:03.314Z,60.80
2018-10-07T07:14:06.993Z,60.87
2018-10-07T07:15:10.583Z,61.10
2018-10-07T07:16:14.074Z,61.26
2018-10-07T07:17:17.485Z,60.97
2018-10-07T07:18:21.362Z,60.76
2018-10-07T07:19:25.163Z,60.48
2018-10-07T07:20:28.616Z,60.97
2018-10-07T07:21:32.696Z,61.08
2018-10-07T07:22:36.945Z,60.83
2018-10-07T07:23:40.763Z,60.69
2018-10-07T07:24:44.647Z,61.07
2018-10-07T07:25:48.163Z,60.64
2018-10-07T07:26:51.667Z,60.75
2018-10-07T07:27:55.083Z,60.35
2018-10-07T07:28:58.506Z,60.80
2018-10-07T07:30:01.935Z,56.98
2018-10-07T07:31:05.364Z,57.58
2018-10-07T07:32:08.803Z,58.09
2018-10-07T07:33:12.302Z,57.93
2018-10-07T07:34:15.722Z,58.25
2018-10-07T07:35:19.229Z,58.13
2018-10-07T07:36:22.673Z,57.92
2018-10-07T07:37:26.113Z,57.99
2018-10-07T07:38:29.611Z,54.76
2018-10-07T07:39:33.125Z,49.22
2018-10-07T07:40:37.561Z,49.31
2018-10-07T07:41:41.104Z,48.07
2018-10-07T07:42:49.198Z,48.23
2018-10-07T07:43:53.985Z,48.42
2018-10-07T07:44:57.918Z,49.16
2018-10-07T07:46:02.506Z,49.55
2018-10-07T07:47:06.906Z,49.95
2018-10-07T07:48:11.156Z,49.63
2018-10-07T07:49:15.581Z,49.89
2018-10-07T07:50:20.631Z,49.98
2018-10-07T07:51:24.108Z,49.86
2018-10-07T07:52:28.070Z,50.35
2018-10-07T07:53:32.136Z,50.42
2018-10-07T07:54:35.719Z,50.05
2018-10-07T07:55:39.531Z,50.94
2018-10-07T07:56:44.019Z,50.96
2018-10-07T07:57:47.605Z,51.13
2018-10-07T07:58:51.193Z,51.19
2018-10-07T07:59:55.071Z,51.14
2018-10-07T08:00:59.872Z,51.66
2018-10-07T08:02:03.770Z,51.54
2018-10-07T08:03:07.388Z,51.27
2018-10-07T08:04:10.857Z,51.43
2018-10-07T08:05:14.344Z,51.48
2018-10-07T08:06:17.807Z,51.49
2018-10-07T08:07:21.262Z,52.08
2018-10-07T08:08:24.787Z,52.37
2018-10-07T08:09:28.308Z,52.49
2018-10-07T08:10:31.780Z,52.37
2018-10-07T08:11:35.224Z,53.08
2018-10-07T08:12:38.803Z,53.12
2018-10-07T08:13:42.291Z,52.84
2018-10-07T08:14:45.719Z,52.76
2018-10-07T08:15:49.247Z,53.43
2018-10-07T08:16:52.773Z,53.50
2018-10-07T08:17:56.309Z,53.04
2018-10-07T08:18:59.820Z,53.15
2018-10-07T08:20:03.365Z,53.55
2018-10-07T08:21:07.049Z,53.29
2018-10-07T08:22:10.486Z,53.24
2018-10-07T08:23:13.985Z,53.25
2018-10-07T08:24:17.407Z,53.64
2018-10-07T08:25:20.870Z,55.05
2018-10-07T08:26:24.441Z,55.61
2018-10-07T08:27:27.863Z,56.06
2018-10-07T08:28:31.332Z,55.62
2018-10-07T08:29:34.839Z,55.03
2018-10-07T08:30:38.258Z,54.50
2018-10-07T08:31:41.816Z,54.84
2018-10-07T08:32:45.269Z,54.29
2018-10-07T08:33:49.184Z,53.97
2018-10-07T08:34:52.667Z,53.81
2018-10-07T08:35:56.141Z,54.46
2018-10-07T08:36:59.563Z,54.75
2018-10-07T08:38:03.061Z,54.90
2018-10-07T08:39:08.705Z,54.04
2018-10-07T08:40:12.185Z,54.26
2018-10-07T08:41:15.626Z,54.10
2018-10-07T08:42:19.056Z,53.57
2018-10-07T08:43:22.630Z,54.03
2018-10-07T08:44:26.056Z,53.45
2018-10-07T08:45:29.525Z,52.67
2018-10-07T08:46:33.010Z,51.86
2018-10-07T08:47:36.444Z,52.49
2018-10-07T08:48:39.895Z,52.46
2018-10-07T08:49:43.389Z,53.22
2018-10-07T08:50:46.868Z,52.69
2018-10-07T08:51:50.484Z,53.39
2018-10-07T08:52:54.016Z,53.44
2018-10-07T08:53:57.492Z,53.46
2018-10-07T08:55:01.032Z,53.56
2018-10-07T08:56:04.527Z,53.09
2018-10-07T08:57:08.622Z,53.91
2018-10-07T08:58:12.033Z,53.89
2018-10-07T08:59:15.745Z,53.97
2018-10-07T09:00:19.193Z,53.45
2018-10-07T09:01:22.701Z,53.53
2018-10-07T09:02:26.192Z,53.41
2018-10-07T09:03:29.654Z,53.63
2018-10-07T09:04:33.157Z,54.27
2018-10-07T09:05:36.617Z,53.80
2018-10-07T09:06:40.065Z,53.81
2018-10-07T09:07:43.541Z,54.59
2018-10-07T09:08:47.019Z,54.26
2018-10-07T09:09:50.509Z,54.16
2018-10-07T09:10:53.982Z,54.33
2018-10-07T09:11:57.454Z,54.27
2018-10-07T09:13:00.889Z,54.18
2018-10-07T09:14:04.346Z,54.69
2018-10-07T09:15:08.080Z,54.26
2018-10-07T09:16:11.648Z,54.69
2018-10-07T09:17:15.150Z,54.18
2018-10-07T09:18:18.735Z,54.99
2018-10-07T09:19:22.177Z,55.10
2018-10-07T09:20:25.626Z,54.53
2018-10-07T09:21:29.071Z,55.00
2018-10-07T09:22:32.541Z,54.47
2018-10-07T09:23:36.051Z,54.25
2018-10-07T09:24:39.480Z,54.50
2018-10-07T09:25:42.924Z,54.56
2018-10-07T09:26:46.368Z,54.49
2018-10-07T09:27:51.016Z,54.30
2018-10-07T09:28:56.136Z,54.81
2018-10-07T09:29:59.838Z,54.91
2018-10-07T09:31:03.295Z,54.90
2018-10-07T09:32:06.806Z,55.07
2018-10-07T09:33:10.455Z,54.99
2018-10-07T09:34:14.365Z,54.87
2018-10-07T09:35:29.599Z,55.31
2018-10-07T09:36:33.090Z,55.22
2018-10-07T09:37:36.506Z,55.18
2018-10-07T09:38:39.973Z,55.18
2018-10-07T09:39:43.584Z,54.78
2018-10-07T09:40:47.113Z,54.94
2018-10-07T09:41:50.806Z,55.21
2018-10-07T09:42:54.252Z,55.11
2018-10-07T09:43:57.678Z,54.89
2018-10-07T09:45:01.160Z,54.97
2018-10-07T09:46:04.658Z,55.13
2018-10-07T09:47:08.228Z,55.20
2018-10-07T09:48:11.802Z,55.00
2018-10-07T09:49:15.435Z,55.14
2018-10-07T09:50:18.928Z,55.00
2018-10-07T09:51:22.372Z,54.50
2018-10-07T09:52:25.957Z,54.99
2018-10-07T09:53:29.318Z,54.62
2018-10-07T09:54:32.793Z,54.72
2018-10-07T09:55:36.328Z,54.88
2018-10-07T09:56:39.800Z,55.33
2018-10-07T09:57:43.222Z,55.46
2018-10-07T09:58:46.694Z,54.76
2018-10-07T09:59:50.192Z,54.87
2018-10-07T10:00:53.816Z,54.81
2018-10-07T10:01:57.294Z,55.04
2018-10-07T10:03:00.733Z,55.38
2018-10-07T10:04:04.215Z,54.84
2018-10-07T10:05:07.729Z,55.22
2018-10-07T10:06:11.164Z,54.82
2018-10-07T10:07:14.774Z,55.26
2018-10-07T10:08:18.151Z,55.10
2018-10-07T10:09:21.612Z,55.01
2018-10-07T10:10:25.011Z,55.15
2018-10-07T10:11:28.470Z,54.86
2018-10-07T10:12:31.923Z,55.13
2018-10-07T10:13:35.577Z,55.32
2018-10-07T10:14:39.007Z,55.20
2018-10-07T10:15:42.478Z,55.13
2018-10-07T10:16:50.613Z,55.24
2018-10-07T10:19:00.831Z,55.34
2018-10-07T10:20:07.622Z,54.43
2018-10-07T10:21:47.038Z,54.81
2018-10-07T10:23:25.873Z,54.90
2018-10-07T10:24:43.127Z,54.36
2018-10-07T10:27:22.669Z,54.71
2018-10-07T10:28:33.555Z,54.88
2018-10-07T10:29:41.722Z,54.38
2018-10-07T10:31:20.338Z,54.42
2018-10-07T10:32:33.288Z,54.39
2018-10-07T10:33:41.161Z,54.21
2018-10-07T10:37:08.530Z,54.65
2018-10-07T10:38:18.852Z,54.49
2018-10-07T10:39:28.718Z,54.22
2018-10-07T10:40:38.635Z,54.63
2018-10-07T10:42:55.025Z,54.77
2018-10-07T10:44:04.207Z,54.30
2018-10-07T10:45:08.099Z,53.96
2018-10-07T10:46:15.515Z,54.28
2018-10-07T10:47:36.955Z,54.70
2018-10-07T10:49:53.259Z,53.99
2018-10-07T10:51:35.075Z,53.95
2018-10-07T10:53:19.281Z,54.74
2018-10-07T10:54:42.950Z,54.01
2018-10-07T10:56:25.298Z,53.66
2018-10-07T10:57:35.695Z,53.56
2018-10-07T10:58:46.091Z,53.99
2018-10-07T11:00:22.521Z,53.22
2018-10-07T11:02:41.569Z,53.12
2018-10-07T11:03:54.757Z,53.44
2018-10-07T11:05:10.565Z,53.37
2018-10-07T11:06:21.854Z,52.93
2018-10-07T11:08:30.876Z,53.47
2018-10-07T11:09:52.537Z,52.92
2018-10-07T11:11:08.566Z,53.04
2018-10-07T11:12:48.779Z,52.68
2018-10-07T11:13:58.850Z,53.15
2018-10-07T11:15:09.688Z,53.06
2018-10-07T11:19:28.647Z,52.04
2018-10-07T11:20:48.506Z,52.47
2018-10-07T11:21:57.192Z,52.05
2018-10-07T11:23:13.331Z,52.10
2018-10-07T11:24:20.934Z,51.81
2018-10-07T11:27:52.601Z,52.02
2018-10-07T11:29:05.956Z,52.00
2018-10-07T11:30:21.989Z,51.85
2018-10-07T11:31:31.932Z,51.96
2018-10-07T11:32:46.695Z,52.22
2018-10-07T11:35:02.705Z,51.67
2018-10-07T11:38:18.746Z,52.08
2018-10-07T11:39:33.703Z,51.93
2018-10-07T11:40:45.844Z,52.03
2018-10-07T11:42:03.629Z,51.46
2018-10-07T11:43:17.165Z,51.39
2018-10-07T11:44:57.555Z,51.63
2018-10-07T11:50:34.740Z,52.00
2018-10-07T11:51:47.422Z,51.21
2018-10-07T11:53:02.210Z,51.90
2018-10-07T11:54:10.914Z,51.62
2018-10-07T11:55:14.487Z,51.75
2018-10-07T11:56:18.110Z,52.24
2018-10-07T11:57:21.772Z,51.66
2018-10-07T11:58:25.266Z,51.84
2018-10-07T11:59:28.749Z,52.01
2018-10-07T12:00:32.236Z,51.67
2018-10-07T12:01:35.921Z,51.26
2018-10-07T12:02:39.422Z,51.92
2018-10-07T12:03:42.834Z,51.31
2018-10-07T12:04:46.334Z,51.93
2018-10-07T12:05:49.821Z,51.56
2018-10-07T12:06:53.380Z,50.65
2018-10-07T12:07:56.925Z,50.84
2018-10-07T12:09:00.405Z,50.74
2018-10-07T12:10:04.037Z,51.40
2018-10-07T12:11:07.843Z,51.13
2018-10-07T12:12:11.288Z,51.25
2018-10-07T12:13:14.988Z,51.20
2018-10-07T12:14:18.928Z,50.79
2018-10-07T12:15:22.679Z,50.44
2018-10-07T12:16:26.200Z,50.34
2018-10-07T12:17:30.280Z,50.85
2018-10-07T12:18:33.909Z,50.19
2018-10-07T12:19:37.543Z,49.92
2018-10-07T12:20:40.992Z,50.50
2018-10-07T12:21:44.474Z,50.26
2018-10-07T12:22:47.988Z,49.81
2018-10-07T12:23:51.598Z,50.06
2018-10-07T12:24:55.130Z,49.59
2018-10-07T12:25:58.616Z,49.86
2018-10-07T12:27:02.144Z,49.44
2018-10-07T12:28:06.000Z,49.72
2018-10-07T12:29:09.448Z,49.71
2018-10-07T12:30:12.933Z,49.31
2018-10-07T12:31:16.404Z,49.39
2018-10-07T12:32:20.106Z,49.43
2018-10-07T12:33:24.951Z,49.33
2018-10-07T12:34:28.407Z,49.61
2018-10-07T12:35:31.922Z,49.11
2018-10-07T12:36:35.483Z,48.81
2018-10-07T12:37:38.986Z,48.89
2018-10-07T12:38:42.492Z,49.27
2018-10-07T12:39:46.070Z,48.64
2018-10-07T12:40:49.587Z,48.84
2018-10-07T12:41:53.192Z,48.71
2018-10-07T12:42:56.651Z,48.86
2018-10-07T12:44:00.239Z,49.20
2018-10-07T12:45:03.740Z,48.83
2018-10-07T12:46:07.225Z,48.70
2018-10-07T12:47:10.819Z,48.63
2018-10-07T12:48:14.712Z,49.25
2018-10-07T12:49:18.222Z,49.01
2018-10-07T12:50:22.035Z,48.92
2018-10-07T12:51:26.072Z,48.64
2018-10-07T12:52:29.536Z,48.28
2018-10-07T12:53:32.993Z,48.68
2018-10-07T12:54:36.552Z,48.71
2018-10-07T12:55:39.881Z,48.51
2018-10-07T12:56:43.336Z,49.12
2018-10-07T12:57:46.781Z,48.81
2018-10-07T12:58:50.232Z,49.36
2018-10-07T12:59:53.702Z,49.55
2018-10-07T13:00:57.117Z,48.95
2018-10-07T13:02:00.584Z,49.34
2018-10-07T13:03:04.069Z,49.06
2018-10-07T13:04:07.508Z,49.33
2018-10-07T13:05:10.957Z,49.43
2018-10-07T13:06:14.428Z,49.00
2018-10-07T13:07:17.894Z,49.78
2018-10-07T13:08:21.537Z,49.09
2018-10-07T13:09:25.025Z,49.36
2018-10-07T13:10:28.459Z,49.75
2018-10-07T13:11:31.922Z,49.19
2018-10-07T13:12:35.395Z,49.34
2018-10-07T13:13:38.852Z,49.49
2018-10-07T13:14:42.289Z,49.80
2018-10-07T13:15:45.718Z,49.54
2018-10-07T13:16:49.216Z,49.44
2018-10-07T13:17:52.782Z,49.56
2018-10-07T13:18:56.275Z,49.57
2018-10-07T13:20:00.020Z,49.18
2018-10-07T13:21:03.494Z,50.01
2018-10-07T13:22:06.950Z,50.08
2018-10-07T13:23:10.373Z,49.58
2018-10-07T13:24:13.824Z,50.13
2018-10-07T13:25:17.214Z,50.15
2018-10-07T13:26:20.713Z,49.89
2018-10-07T13:27:24.186Z,49.73
2018-10-07T13:28:27.626Z,49.60
2018-10-07T13:29:31.134Z,49.75
2018-10-07T13:30:34.573Z,49.96
2018-10-07T13:31:38.055Z,50.07
2018-10-07T13:32:41.559Z,50.02
2018-10-07T13:33:45.082Z,50.43
2018-10-07T13:34:48.489Z,50.05
2018-10-07T13:35:51.987Z,50.02
2018-10-07T13:36:55.478Z,49.92
2018-10-07T13:37:58.896Z,50.23
2018-10-07T13:39:02.359Z,50.17
2018-10-07T13:40:06.056Z,49.34
2018-10-07T13:41:09.489Z,49.67
2018-10-07T13:42:12.958Z,49.26
2018-10-07T13:43:16.384Z,49.03
2018-10-07T13:44:19.982Z,49.07
2018-10-07T13:45:23.456Z,48.86
2018-10-07T13:46:26.897Z,48.57
2018-10-07T13:47:30.309Z,48.12
2018-10-07T13:48:33.726Z,48.51
2018-10-07T13:49:37.138Z,48.72
2018-10-07T13:50:40.648Z,48.32
2018-10-07T13:51:44.110Z,48.72
2018-10-07T13:52:47.523Z,48.58
2018-10-07T13:53:50.973Z,48.32
2018-10-07T13:54:54.494Z,48.25
2018-10-07T13:55:57.969Z,48.07
2018-10-07T13:57:01.448Z,48.18
2018-10-07T13:58:04.938Z,48.02
2018-10-07T13:59:08.405Z,48.23
2018-10-07T14:00:11.792Z,48.19
2018-10-07T14:01:15.246Z,48.32
2018-10-07T14:02:18.689Z,48.42
2018-10-07T14:03:22.292Z,48.52
2018-10-07T14:04:25.918Z,48.67
2018-10-07T14:05:29.444Z,48.89
2018-10-07T14:06:32.961Z,48.79
2018-10-07T14:07:36.448Z,48.83
2018-10-07T14:08:40.075Z,48.92
2018-10-07T14:09:43.700Z,48.98
2018-10-07T14:10:47.138Z,49.18
2018-10-07T14:11:50.732Z,49.02
2018-10-07T14:12:54.252Z,49.44
2018-10-07T14:13:57.692Z,49.61
2018-10-07T14:15:01.125Z,49.62